createdAt,value
2019-03-11T00:03:58.457Z,3.52
2019-03-11T00:06:27.831Z,3.53
2019-03-11T00:08:57.194Z,3.53
2019-03-11T00:11:26.780Z,3.53
2019-03-11T00:13:56.455Z,3.52
2019-03-11T00:16:25.827Z,3.56
2019-03-11T00:18:55.732Z,3.55
2019-03-11T00:21:25.112Z,3.58
2019-03-11T00:23:54.767Z,3.55
2019-03-11T00:26:24.145Z,3.54
2019-03-11T00:28:53.997Z,3.54
2019-03-11T00:31:23.367Z,3.54
2019-03-11T00:33:53.336Z,3.53
2019-03-11T00:36:22.892Z,3.53
2019-03-11T00:38:52.269Z,3.55
2019-03-11T00:41:21.867Z,3.55
2019-03-11T00:43:51.243Z,3.55
2019-03-11T00:46:21.096Z,3.55
2019-03-11T00:48:50.467Z,3.58
2019-03-11T00:51:20.120Z,3.58
2019-03-11T00:53:49.798Z,3.62
2019-03-11T00:56:19.197Z,3.68
2019-03-11T00:58:48.837Z,3.68
2019-03-11T01:04:14.366Z,3.65
2019-03-11T01:06:44.222Z,3.63
2019-03-11T01:09:13.878Z,3.60
2019-03-11T01:12:02.633Z,3.65
2019-03-11T01:14:31.942Z,3.65
2019-03-11T01:17:01.318Z,3.66
2019-03-11T01:19:31.181Z,3.66
2019-03-11T01:22:00.544Z,3.68
2019-03-11T01:24:30.168Z,3.70
2019-03-11T01:26:59.519Z,3.71
2019-03-11T01:29:29.025Z,3.69
2019-03-11T01:31:58.380Z,3.67
2019-03-11T01:34:28.024Z,3.63
2019-03-11T01:37:10.110Z,3.57
2019-03-11T01:39:39.480Z,3.57
2019-03-11T01:42:09.150Z,3.55
2019-03-11T01:44:38.521Z,3.54
2019-03-11T01:47:08.128Z,3.53
2019-03-11T01:49:37.495Z,3.50
2019-03-11T01:52:07.294Z,3.48
2019-03-11T01:54:36.665Z,3.46
2019-03-11T01:57:06.254Z,3.46
2019-03-11T01:59:35.926Z,3.42
2019-03-11T02:02:05.277Z,3.41
2019-03-11T02:04:36.279Z,3.38
2019-03-11T02:07:05.629Z,3.40
2019-03-11T02:09:35.282Z,3.42
2019-03-11T02:12:04.638Z,3.42
2019-03-11T02:14:34.270Z,3.46
2019-03-11T02:17:03.625Z,3.48
2019-03-11T02:19:33.160Z,3.52
2019-03-11T02:22:02.521Z,3.58
2019-03-11T02:24:31.894Z,3.65
2019-03-11T02:27:01.262Z,3.65
2019-03-11T02:29:32.272Z,3.65
2019-03-11T02:32:01.635Z,3.65
2019-03-11T02:34:31.304Z,3.68
2019-03-11T02:37:00.934Z,3.69
2019-03-11T02:39:30.495Z,3.69
2019-03-11T02:41:59.859Z,3.68
2019-03-11T02:44:29.535Z,3.70
2019-03-11T02:46:58.892Z,3.72
2019-03-11T02:49:28.618Z,3.71
2019-03-11T02:51:58.570Z,3.68
2019-03-11T02:54:28.231Z,3.64
2019-03-11T02:57:11.339Z,3.62
2019-03-11T02:59:40.720Z,3.62
2019-03-11T03:02:29.206Z,3.58
2019-03-11T03:05:18.033Z,3.58
2019-03-11T03:08:06.799Z,3.53
2019-03-11T03:10:36.182Z,3.47
2019-03-11T03:13:05.545Z,3.42
2019-03-11T03:15:34.919Z,3.40
2019-03-11T03:18:04.529Z,3.37
2019-03-11T03:20:33.905Z,3.39
2019-03-11T03:23:03.555Z,3.40
2019-03-11T03:25:34.906Z,3.40
2019-03-11T03:28:23.097Z,3.42
2019-03-11T03:30:52.935Z,3.41
2019-03-11T03:33:22.585Z,3.39
2019-03-11T03:35:52.127Z,3.41
2019-03-11T03:38:30.650Z,3.40
2019-03-11T03:40:58.018Z,3.44
2019-03-11T03:43:27.641Z,3.47
2019-03-11T03:45:58.913Z,3.47
2019-03-11T03:48:28.653Z,3.46
2019-03-11T03:50:58.258Z,3.45
2019-03-11T03:53:27.616Z,3.46
2019-03-11T03:55:57.014Z,3.43
2019-03-11T03:58:26.616Z,3.39
2019-03-11T04:00:56.290Z,3.39
2019-03-11T04:03:25.821Z,3.36
2019-03-11T04:05:55.165Z,3.32
2019-03-11T04:08:24.763Z,3.28
2019-03-11T04:10:54.221Z,3.26
2019-03-11T04:13:23.647Z,3.27
2019-03-11T04:15:53.028Z,3.25
2019-03-11T04:21:45.892Z,3.27
2019-03-11T04:24:15.264Z,3.26
2019-03-11T04:26:44.933Z,3.25
2019-03-11T04:29:14.289Z,3.30
2019-03-11T04:31:43.953Z,3.33
2019-03-11T04:34:13.609Z,3.35
2019-03-11T04:36:43.111Z,3.34
2019-03-11T04:39:12.764Z,3.29
2019-03-11T04:41:43.091Z,3.26
2019-03-11T04:44:12.745Z,3.25
2019-03-11T04:46:43.418Z,3.23
2019-03-11T04:49:13.043Z,3.22
2019-03-11T04:51:43.149Z,3.21
2019-03-11T04:54:12.797Z,3.23
2019-03-11T04:56:43.191Z,3.24
2019-03-11T05:02:15.120Z,3.31
2019-03-11T05:04:45.086Z,3.30
2019-03-11T05:07:14.760Z,3.31
2019-03-11T05:09:44.164Z,3.32
2019-03-11T05:12:13.814Z,3.32
2019-03-11T05:14:43.323Z,3.31
2019-03-11T05:17:12.911Z,3.28
2019-03-11T05:19:43.160Z,3.31
2019-03-11T05:22:12.812Z,3.33
2019-03-11T05:24:43.290Z,3.32
2019-03-11T05:27:12.801Z,3.37
2019-03-11T05:29:43.203Z,3.38
2019-03-11T05:32:12.869Z,3.40
2019-03-11T05:37:45.221Z,3.45
2019-03-11T05:40:54.937Z,3.45
2019-03-11T05:43:24.291Z,3.46
2019-03-11T05:45:53.963Z,3.45
2019-03-11T05:48:23.322Z,3.45
2019-03-11T05:50:54.451Z,3.45
2019-03-11T05:53:23.941Z,3.46
2019-03-11T05:55:53.436Z,3.47
2019-03-11T05:58:43.485Z,3.46
2019-03-11T06:01:13.121Z,3.49
2019-03-11T06:03:43.407Z,3.48
2019-03-11T06:06:13.057Z,3.49
2019-03-11T06:08:43.312Z,3.52
2019-03-11T06:11:13.370Z,3.54
2019-03-11T06:13:43.410Z,3.58
2019-03-11T06:16:13.081Z,3.58
2019-03-11T06:21:43.374Z,3.59
2019-03-11T06:24:14.463Z,3.62
2019-03-11T06:26:44.134Z,3.64
2019-03-11T06:29:13.498Z,3.61
2019-03-11T06:31:43.541Z,3.60
2019-03-11T06:34:13.260Z,3.62
2019-03-11T06:36:43.489Z,3.61
2019-03-11T06:39:13.172Z,3.59
2019-03-11T06:41:43.584Z,3.49
2019-03-11T06:44:13.231Z,3.47
2019-03-11T06:46:45.886Z,3.42
2019-03-11T06:49:20.307Z,3.44
2019-03-11T06:51:49.683Z,3.46
2019-03-11T06:54:19.240Z,3.49
2019-03-11T06:56:48.619Z,3.56
2019-03-11T06:59:18.235Z,3.64
2019-03-11T07:01:47.587Z,3.71
2019-03-11T07:04:17.260Z,3.78
2019-03-11T07:06:46.951Z,3.79
2019-03-11T07:09:16.469Z,3.80
2019-03-11T07:11:46.147Z,3.81
2019-03-11T07:14:15.511Z,3.80
2019-03-11T07:16:45.466Z,3.74
2019-03-11T07:19:14.843Z,3.74
2019-03-11T07:21:44.513Z,3.71
2019-03-11T07:24:13.872Z,3.66
2019-03-11T07:26:43.705Z,3.64
2019-03-11T07:29:13.331Z,3.59
2019-03-11T07:31:43.701Z,3.56
2019-03-11T07:34:13.602Z,3.54
2019-03-11T07:36:43.830Z,3.54
2019-03-11T07:39:13.458Z,3.53
2019-03-11T07:41:43.752Z,3.53
2019-03-11T07:44:13.374Z,3.49
2019-03-11T07:46:45.590Z,3.44
2019-03-11T07:49:33.962Z,3.42
2019-03-11T07:52:03.616Z,3.43
2019-03-11T07:54:36.058Z,3.48
2019-03-11T07:57:11.065Z,3.52
2019-03-11T07:59:49.826Z,3.62
2019-03-11T08:02:19.489Z,3.74
2019-03-11T08:04:48.863Z,3.76
2019-03-11T08:07:18.562Z,3.78
2019-03-11T08:09:47.942Z,3.76
2019-03-11T08:12:17.834Z,3.73
2019-03-11T08:14:47.746Z,3.70
2019-03-11T08:17:17.132Z,3.59
2019-03-11T08:19:46.581Z,3.46
2019-03-11T08:22:15.964Z,3.39
2019-03-11T08:24:45.471Z,3.29
2019-03-11T08:27:15.098Z,3.22
2019-03-11T08:29:44.751Z,3.17
2019-03-11T08:32:14.135Z,3.13
2019-03-11T08:34:43.931Z,3.10
2019-03-11T08:37:13.638Z,3.09
2019-03-11T08:39:43.980Z,3.08
2019-03-11T08:42:13.698Z,3.07
2019-03-11T08:44:44.013Z,3.02
2019-03-11T08:47:13.993Z,2.99
2019-03-11T08:49:43.987Z,2.95
2019-03-11T08:52:13.646Z,2.97
2019-03-11T08:54:43.978Z,3.13
2019-03-11T08:57:14.969Z,3.34
2019-03-11T08:59:44.625Z,3.45
2019-03-11T09:02:14.248Z,3.42
2019-03-11T09:04:44.037Z,3.39
2019-03-11T09:07:13.749Z,3.30
2019-03-11T09:09:44.091Z,3.21
2019-03-11T09:12:13.813Z,3.12
2019-03-11T09:14:44.215Z,3.03
2019-03-11T09:17:13.706Z,2.96
2019-03-11T09:19:44.450Z,2.98
2019-03-11T09:22:13.826Z,2.97
2019-03-11T09:24:44.102Z,3.07
2019-03-11T09:27:14.020Z,3.20
2019-03-11T09:29:44.237Z,3.36
2019-03-11T09:32:14.231Z,3.49
2019-03-11T09:34:44.137Z,3.55
2019-03-11T09:37:13.770Z,3.59
2019-03-11T09:39:44.370Z,3.67
2019-03-11T09:42:13.956Z,3.79
2019-03-11T09:44:44.231Z,3.83
2019-03-11T09:47:14.223Z,3.83
2019-03-11T09:49:44.549Z,3.92
2019-03-11T09:52:13.922Z,4.03
2019-03-11T09:54:44.143Z,4.12
2019-03-11T09:57:13.517Z,4.22
2019-03-11T09:59:44.296Z,4.40
2019-03-11T10:02:13.951Z,4.67
2019-03-11T10:04:44.457Z,4.86
2019-03-11T10:07:14.085Z,4.91
2019-03-11T10:09:44.260Z,4.98
2019-03-11T10:12:13.960Z,5.24
2019-03-11T10:14:44.294Z,5.57
2019-03-11T10:17:13.949Z,5.75
2019-03-11T10:19:44.289Z,5.68
2019-03-11T10:22:13.949Z,5.52
2019-03-11T10:24:44.420Z,5.35
2019-03-11T10:27:14.022Z,5.33
2019-03-11T10:29:44.261Z,5.32
2019-03-11T10:32:13.922Z,5.36
2019-03-11T10:34:44.282Z,5.44
2019-03-11T10:37:13.949Z,5.44
2019-03-11T10:39:47.832Z,5.48
2019-03-11T10:42:22.083Z,5.65
2019-03-11T10:44:51.447Z,5.89
2019-03-11T10:47:21.068Z,6.08
2019-03-11T10:49:50.426Z,6.23
2019-03-11T10:52:20.429Z,6.43
2019-03-11T10:54:50.082Z,6.46
2019-03-11T10:57:19.444Z,6.50
2019-03-11T10:59:49.010Z,6.49
2019-03-11T11:02:18.386Z,6.46
2019-03-11T11:04:48.354Z,6.41
2019-03-11T11:07:17.726Z,6.29
2019-03-11T11:09:47.431Z,6.18
2019-03-11T11:12:17.040Z,6.18
2019-03-11T11:14:46.674Z,6.18
2019-03-11T11:17:16.102Z,6.22
2019-03-11T11:19:45.755Z,6.23
2019-03-11T11:22:15.332Z,6.24
2019-03-11T11:24:44.688Z,6.12
2019-03-11T11:27:14.561Z,5.97
2019-03-11T11:29:44.554Z,5.85
2019-03-11T11:32:14.185Z,5.70
2019-03-11T11:34:44.486Z,5.59
2019-03-11T11:37:14.142Z,5.48
2019-03-11T11:39:44.590Z,5.35
2019-03-11T11:42:14.547Z,5.29
2019-03-11T11:44:44.914Z,5.20
2019-03-11T11:47:14.290Z,5.10
2019-03-11T11:49:44.567Z,5.03
2019-03-11T11:52:14.209Z,4.97
2019-03-11T11:54:43.602Z,4.89
2019-03-11T11:57:13.243Z,4.84
2019-03-11T11:59:53.228Z,4.83
2019-03-11T12:02:33.036Z,4.80
2019-03-11T12:05:02.448Z,4.79
2019-03-11T12:07:31.852Z,4.83
2019-03-11T12:10:01.465Z,4.86
2019-03-11T12:12:30.847Z,4.91
2019-03-11T12:15:00.572Z,4.94
2019-03-11T12:17:30.479Z,4.96
2019-03-11T12:20:00.980Z,4.98
2019-03-11T12:22:30.588Z,5.03
2019-03-11T12:24:59.968Z,5.09
2019-03-11T12:27:31.576Z,5.14
2019-03-11T12:30:39.664Z,5.37
2019-03-11T12:33:09.027Z,5.37
2019-03-11T12:35:38.689Z,5.60
2019-03-11T12:38:08.051Z,5.72
2019-03-11T12:40:38.006Z,5.82
2019-03-11T12:43:07.657Z,5.96
2019-03-11T12:45:37.036Z,6.06
2019-03-11T12:48:06.794Z,6.19
2019-03-11T12:50:36.228Z,6.44
2019-03-11T12:53:05.669Z,6.60
2019-03-11T12:55:35.274Z,6.65
2019-03-11T12:58:04.878Z,6.64
2019-03-11T13:00:34.268Z,6.65
2019-03-11T13:03:04.080Z,6.70
2019-03-11T13:05:53.121Z,6.86
2019-03-11T13:08:22.690Z,6.86
2019-03-11T13:10:52.342Z,7.00
2019-03-11T13:13:34.577Z,7.27
2019-03-11T13:16:03.936Z,7.27
2019-03-11T13:21:55.199Z,7.52
2019-03-11T13:24:37.163Z,7.66
2019-03-11T13:27:18.674Z,7.73
2019-03-11T13:29:48.332Z,7.73
2019-03-11T13:32:17.859Z,7.65
2019-03-11T13:34:47.215Z,7.65
2019-03-11T13:37:16.798Z,7.45
2019-03-11T13:39:46.158Z,7.45
2019-03-11T13:42:15.755Z,7.24
2019-03-11T13:44:45.135Z,7.24
2019-03-11T13:47:14.814Z,7.18
2019-03-11T13:49:45.154Z,7.15
2019-03-11T13:52:14.822Z,7.12
2019-03-11T13:54:45.179Z,7.15
2019-03-11T13:57:14.872Z,7.19
2019-03-11T13:59:45.177Z,7.27
2019-03-11T14:02:54.898Z,7.20
2019-03-11T14:05:24.253Z,6.96
2019-03-11T14:07:53.923Z,6.67
2019-03-11T14:10:23.534Z,6.52
2019-03-11T14:12:53.115Z,6.46
2019-03-11T14:18:57.154Z,6.61
2019-03-11T14:21:26.864Z,6.81
2019-03-11T14:23:58.147Z,6.81
2019-03-11T14:26:27.510Z,6.80
2019-03-11T14:28:57.532Z,6.83
2019-03-11T14:31:27.345Z,6.88
2019-03-11T14:34:09.657Z,6.85
2019-03-11T14:36:39.015Z,6.85
2019-03-11T14:39:08.458Z,6.75
2019-03-11T14:41:39.722Z,6.69
2019-03-11T14:44:21.854Z,6.68
2019-03-11T14:46:52.314Z,6.67
2019-03-11T14:52:45.416Z,6.41
2019-03-11T14:55:15.153Z,6.24
2019-03-11T14:57:45.412Z,6.17
2019-03-11T15:00:34.311Z,6.16
2019-03-11T15:03:03.939Z,6.11
2019-03-11T15:05:33.303Z,6.08
2019-03-11T15:08:02.973Z,6.06
2019-03-11T15:10:32.340Z,6.04
2019-03-11T15:13:02.023Z,5.98
2019-03-11T15:18:20.311Z,5.99
2019-03-11T15:20:49.707Z,6.00
2019-03-11T15:23:20.941Z,6.01
2019-03-11T15:25:59.623Z,6.03
2019-03-11T15:28:29.072Z,6.02
2019-03-11T15:30:58.427Z,6.02
2019-03-11T15:33:28.034Z,6.02
2019-03-11T15:35:57.683Z,6.02
2019-03-11T15:38:27.529Z,6.00
2019-03-11T15:40:57.183Z,5.99
2019-03-11T15:43:37.442Z,5.97
2019-03-11T15:46:07.141Z,5.93
2019-03-11T15:49:16.555Z,5.92
2019-03-11T15:51:46.458Z,5.86
2019-03-11T15:54:16.169Z,5.83
2019-03-11T15:56:45.568Z,5.83
2019-03-11T15:59:15.270Z,5.89
2019-03-11T16:01:45.839Z,5.97
2019-03-11T16:04:15.473Z,6.05
2019-03-11T16:06:45.556Z,6.11
2019-03-11T16:09:19.333Z,6.17
2019-03-11T16:12:05.527Z,6.18
2019-03-11T16:14:35.241Z,6.19
2019-03-11T16:17:04.726Z,6.18
2019-03-11T16:19:34.221Z,6.15
2019-03-11T16:22:23.316Z,6.10
2019-03-11T16:24:47.501Z,6.06
2019-03-11T16:27:17.162Z,6.03
2019-03-11T16:29:46.847Z,6.02
2019-03-11T16:32:16.335Z,6.05
2019-03-11T16:34:45.735Z,6.04
2019-03-11T16:37:15.273Z,6.03
2019-03-11T16:39:45.685Z,5.97
2019-03-11T16:42:15.234Z,5.99
2019-03-11T16:44:45.586Z,5.99
2019-03-11T16:47:14.945Z,5.99
2019-03-11T16:49:45.753Z,5.99
2019-03-11T16:52:15.416Z,6.02
2019-03-11T16:54:45.689Z,6.03
2019-03-11T16:57:15.302Z,6.03
2019-03-11T16:59:45.626Z,6.01
2019-03-11T17:02:15.310Z,5.99
2019-03-11T17:04:46.070Z,6.07
2019-03-11T17:07:15.435Z,6.12
2019-03-11T17:09:45.676Z,6.19
2019-03-11T17:12:16.650Z,6.25
2019-03-11T17:14:46.334Z,6.28
2019-03-11T17:17:15.699Z,6.32
2019-03-11T17:19:45.799Z,6.33
2019-03-11T17:22:27.921Z,6.32
2019-03-11T17:24:57.583Z,6.35
2019-03-11T17:27:26.939Z,6.41
2019-03-11T17:29:56.917Z,6.44
2019-03-11T17:32:26.520Z,6.46
2019-03-11T17:34:56.155Z,6.44
2019-03-11T17:37:25.509Z,6.40
2019-03-11T17:39:55.251Z,6.38
2019-03-11T17:42:24.899Z,6.38
2019-03-11T17:44:54.570Z,6.40
2019-03-11T17:47:23.926Z,6.38
2019-03-11T17:49:53.590Z,6.38
2019-03-11T17:52:22.945Z,6.33
2019-03-11T17:54:52.609Z,6.41
2019-03-11T17:57:22.225Z,6.41
2019-03-11T17:59:51.852Z,6.40
2019-03-11T18:02:21.501Z,6.35
2019-03-11T18:04:51.217Z,6.34
2019-03-11T18:07:22.579Z,6.34
2019-03-11T18:09:51.927Z,6.38
2019-03-11T18:12:21.288Z,6.39
2019-03-11T18:14:50.992Z,6.38
2019-03-11T18:17:33.084Z,6.40
2019-03-11T18:20:30.109Z,6.40
2019-03-11T18:22:59.580Z,6.42
2019-03-11T18:25:39.864Z,6.37
2019-03-11T18:28:09.502Z,6.34
2019-03-11T18:30:38.884Z,6.27
2019-03-11T18:33:08.508Z,6.26
2019-03-11T18:35:37.851Z,6.25
2019-03-11T18:38:07.209Z,6.24
2019-03-11T18:40:36.708Z,6.23
2019-03-11T18:43:06.056Z,6.22
2019-03-11T18:45:35.706Z,6.19
2019-03-11T18:48:05.132Z,6.18
2019-03-11T18:50:34.740Z,6.17
2019-03-11T18:53:04.174Z,6.16
2019-03-11T18:55:33.778Z,6.18
2019-03-11T18:58:03.125Z,6.19
2019-03-11T19:00:40.222Z,6.20
2019-03-11T19:03:09.846Z,6.22
2019-03-11T19:05:39.197Z,6.22
2019-03-11T19:08:09.204Z,6.23
2019-03-11T19:10:38.899Z,6.24
2019-03-11T19:13:09.602Z,6.27
2019-03-11T19:15:59.078Z,6.26
2019-03-11T19:18:28.458Z,6.21
2019-03-11T19:20:58.205Z,6.20
2019-03-11T19:23:27.901Z,6.21
2019-03-11T19:25:57.368Z,6.19
2019-03-11T19:28:26.925Z,6.19
2019-03-11T19:30:56.760Z,6.17
2019-03-11T19:33:46.443Z,6.15
2019-03-11T19:36:16.152Z,6.15
2019-03-11T19:38:46.282Z,6.16
2019-03-11T19:41:15.935Z,6.19
2019-03-11T19:43:46.214Z,6.19
2019-03-11T19:46:15.976Z,6.19
2019-03-11T19:48:46.303Z,6.13
2019-03-11T19:51:15.938Z,6.12
2019-03-11T19:53:46.465Z,6.06
2019-03-11T19:56:16.026Z,6.01
2019-03-11T19:58:46.389Z,5.96
2019-03-11T20:01:16.323Z,5.92
2019-03-11T20:03:46.432Z,5.87
2019-03-11T20:06:16.081Z,5.83
2019-03-11T20:08:46.533Z,5.78
2019-03-11T20:11:16.170Z,5.75
2019-03-11T20:13:46.453Z,5.71
2019-03-11T20:16:16.074Z,5.68
2019-03-11T20:18:46.765Z,5.62
2019-03-11T20:21:16.242Z,5.54
2019-03-11T20:23:46.442Z,5.47
2019-03-11T20:26:18.485Z,5.42
2019-03-11T20:28:52.634Z,5.34
2019-03-11T20:31:22.159Z,5.34
2019-03-11T20:33:51.880Z,5.29
2019-03-11T20:36:21.626Z,5.28
2019-03-11T20:39:01.479Z,5.23
2019-03-11T20:41:32.498Z,5.22
2019-03-11T20:44:04.934Z,5.20
2019-03-11T20:46:53.464Z,5.17
2019-03-11T20:49:23.201Z,5.18
2019-03-11T20:51:52.537Z,5.19
2019-03-11T20:54:22.240Z,5.18
2019-03-11T20:56:51.873Z,5.16
2019-03-11T20:59:21.314Z,5.16
2019-03-11T21:01:50.821Z,5.17
2019-03-11T21:04:20.348Z,5.15
2019-03-11T21:06:50.027Z,5.16
2019-03-11T21:09:19.448Z,5.18
2019-03-11T21:11:48.806Z,5.17
2019-03-11T21:14:18.423Z,5.15
2019-03-11T21:16:47.763Z,5.16
2019-03-11T21:19:17.379Z,5.16
2019-03-11T21:21:46.811Z,5.19
2019-03-11T21:24:16.444Z,5.19
2019-03-11T21:26:46.754Z,5.18
2019-03-11T21:29:16.423Z,5.18
2019-03-11T21:31:46.806Z,5.18
2019-03-11T21:34:16.315Z,5.19
2019-03-11T21:36:46.703Z,5.19
2019-03-11T21:39:16.495Z,5.22
2019-03-11T21:41:46.872Z,5.22
2019-03-11T21:44:16.408Z,5.21
2019-03-11T21:46:47.067Z,5.21
2019-03-11T21:49:16.393Z,5.19
2019-03-11T21:51:46.804Z,5.20
2019-03-11T21:54:16.500Z,5.21
2019-03-11T21:56:46.915Z,5.22
2019-03-11T21:59:16.536Z,5.21
2019-03-11T22:01:46.877Z,5.21
2019-03-11T22:04:16.525Z,5.18
2019-03-11T22:06:46.892Z,5.14
2019-03-11T22:09:17.855Z,5.13
2019-03-11T22:11:47.527Z,5.10
2019-03-11T22:14:16.883Z,5.10
2019-03-11T22:16:46.902Z,5.11
2019-03-11T22:19:16.518Z,5.12
2019-03-11T22:21:46.881Z,5.13
2019-03-11T22:24:16.531Z,5.13
2019-03-11T22:26:47.816Z,5.14
2019-03-11T22:29:17.810Z,5.14
2019-03-11T22:31:47.463Z,5.17
2019-03-11T22:34:16.850Z,5.19
2019-03-11T22:36:46.936Z,5.19
2019-03-11T22:39:16.598Z,5.21
2019-03-11T22:41:47.023Z,5.21
2019-03-11T22:44:16.663Z,5.22
2019-03-11T22:46:47.222Z,5.22
2019-03-11T22:49:16.577Z,5.25
2019-03-11T22:51:46.990Z,5.25
2019-03-11T22:54:16.637Z,5.27
2019-03-11T22:56:47.401Z,5.32
2019-03-11T22:59:17.517Z,5.37
2019-03-11T23:01:47.596Z,5.40
2019-03-11T23:04:16.975Z,5.42
2019-03-11T23:06:47.089Z,5.43
2019-03-11T23:09:16.764Z,5.48
2019-03-11T23:11:47.099Z,5.51
2019-03-11T23:14:16.780Z,5.50
2019-03-11T23:16:47.115Z,5.48
2019-03-11T23:19:16.766Z,5.47
2019-03-11T23:21:47.670Z,5.42
2019-03-11T23:27:11.564Z,5.39
2019-03-11T23:29:40.928Z,5.42
2019-03-11T23:32:10.302Z,5.43
2019-03-11T23:34:39.830Z,5.41
2019-03-11T23:37:09.189Z,5.41
2019-03-11T23:39:38.575Z,5.48
2019-03-11T23:42:07.953Z,5.49
2019-03-11T23:44:37.342Z,5.51
2019-03-11T23:47:06.865Z,5.51
2019-03-11T23:49:36.241Z,5.49
2019-03-11T23:52:05.869Z,5.49
2019-03-11T23:54:35.240Z,5.49
2019-03-11T23:57:04.923Z,5.45
2019-03-11T23:59:34.306Z,5.45
